createdAt,value
2022-11-29T00:01:49.081Z,8.65
2022-11-29T00:04:18.390Z,10.85
2022-11-29T00:06:47.555Z,9.40
2022-11-29T00:09:19.178Z,13.02
2022-11-29T00:12:05.904Z,12.25
2022-11-29T00:14:38.483Z,14.48
2022-11-29T00:17:10.102Z,10.88
2022-11-29T00:19:40.445Z,12.13
2022-11-29T00:22:10.085Z,8.90
2022-11-29T00:24:45.671Z,10.85
2022-11-29T00:27:18.280Z,13.55
2022-11-29T00:29:47.626Z,10.43
2022-11-29T00:32:17.987Z,15.30
2022-11-29T00:34:47.809Z,18.48
2022-11-29T00:37:16.983Z,17.77
2022-11-29T00:39:50.264Z,22.95
2022-11-29T00:42:20.595Z,23.50
2022-11-29T00:44:49.799Z,24.50
2022-11-29T00:47:19.590Z,24.73
2022-11-29T00:49:49.387Z,28.73
2022-11-29T00:52:18.848Z,27.98
2022-11-29T00:54:51.610Z,29.92
2022-11-29T00:57:22.337Z,49.88
2022-11-29T00:59:52.210Z,50.95
2022-11-29T01:02:22.018Z,47.78
2022-11-29T01:04:55.080Z,58.53
2022-11-29T01:07:27.533Z,65.05
2022-11-29T01:09:58.263Z,40.45
2022-11-29T01:12:27.576Z,41.92
2022-11-29T01:14:56.795Z,38.38
2022-11-29T01:17:26.513Z,41.60
2022-11-29T01:20:01.841Z,35.30
2022-11-29T01:22:31.335Z,40.05
2022-11-29T01:25:01.714Z,42.67
2022-11-29T01:27:31.627Z,33.60
2022-11-29T01:30:01.190Z,37.13
2022-11-29T01:32:30.972Z,45.90
2022-11-29T01:35:00.410Z,34.25
2022-11-29T01:37:30.268Z,30.92
2022-11-29T01:39:59.578Z,55.38
2022-11-29T01:42:30.336Z,44.47
2022-11-29T01:45:07.929Z,49.65
2022-11-29T01:47:40.177Z,28.17
2022-11-29T01:50:11.353Z,37.08
2022-11-29T01:52:41.266Z,30.77
2022-11-29T01:55:14.833Z,45.40
2022-11-29T01:57:45.898Z,48.30
2022-11-29T02:00:17.618Z,55.15
2022-11-29T02:02:49.068Z,33.28
2022-11-29T02:05:19.282Z,37.95
2022-11-29T02:07:50.420Z,55.08
2022-11-29T02:10:19.993Z,58.60
2022-11-29T02:12:56.248Z,35.85
2022-11-29T02:15:30.903Z,35.22
2022-11-29T02:18:03.616Z,42.15
2022-11-29T02:20:50.634Z,47.38
2022-11-29T02:23:37.061Z,41.05
2022-11-29T02:26:15.333Z,35.42
2022-11-29T02:29:02.724Z,41.45
2022-11-29T02:31:57.366Z,48.28
2022-11-29T02:34:37.865Z,49.08
2022-11-29T02:37:15.245Z,66.38
2022-11-29T02:39:59.595Z,44.00
2022-11-29T02:42:54.397Z,53.42
2022-11-29T02:45:36.492Z,49.88
2022-11-29T02:48:13.191Z,43.20
2022-11-29T02:50:45.874Z,41.30
2022-11-29T02:53:17.465Z,59.67
2022-11-29T02:55:50.353Z,47.38
2022-11-29T02:58:25.503Z,69.15
2022-11-29T03:00:59.806Z,60.33
2022-11-29T03:03:33.649Z,53.08
2022-11-29T03:06:09.755Z,49.15
2022-11-29T03:08:42.556Z,54.13
2022-11-29T03:11:16.538Z,58.80
2022-11-29T03:13:51.623Z,52.33
2022-11-29T03:16:25.349Z,75.25
2022-11-29T03:19:01.884Z,60.35
2022-11-29T03:21:37.979Z,77.57
2022-11-29T03:24:09.261Z,70.95
2022-11-29T03:26:43.481Z,74.78
2022-11-29T03:29:15.405Z,52.63
2022-11-29T03:34:16.092Z,64.78
2022-11-29T03:39:17.343Z,52.22
2022-11-29T03:41:50.261Z,38.28
2022-11-29T03:44:20.775Z,48.00
2022-11-29T03:46:52.377Z,41.42
2022-11-29T03:49:24.555Z,34.50
2022-11-29T03:52:00.484Z,42.42
2022-11-29T03:54:34.478Z,34.50
2022-11-29T03:57:03.805Z,38.40
2022-11-29T03:59:39.634Z,44.72
2022-11-29T04:02:25.353Z,33.08
2022-11-29T04:05:27.783Z,35.90
2022-11-29T04:10:33.980Z,35.25
2022-11-29T04:13:16.947Z,28.17
2022-11-29T04:16:03.870Z,27.23
2022-11-29T04:18:48.607Z,29.63
2022-11-29T04:21:41.385Z,28.10
2022-11-29T04:24:17.772Z,29.38
2022-11-29T04:27:06.688Z,24.13
2022-11-29T04:29:43.797Z,26.67
2022-11-29T04:32:23.358Z,33.38
2022-11-29T04:35:09.116Z,29.45
2022-11-29T04:37:54.805Z,30.95
2022-11-29T04:40:38.776Z,27.42
2022-11-29T04:43:23.176Z,36.88
2022-11-29T04:46:06.669Z,35.85
2022-11-29T04:48:44.748Z,40.08
2022-11-29T04:51:21.363Z,32.45
2022-11-29T04:53:53.708Z,38.28
2022-11-29T04:56:27.655Z,38.75
2022-11-29T04:59:01.183Z,37.97
2022-11-29T05:01:33.905Z,37.85
2022-11-29T05:04:04.828Z,41.20
2022-11-29T05:06:36.813Z,36.50
2022-11-29T05:11:45.335Z,34.47
2022-11-29T05:14:20.461Z,39.38
2022-11-29T05:16:50.877Z,42.72
2022-11-29T05:19:30.809Z,32.17
2022-11-29T05:22:07.881Z,36.53
2022-11-29T05:24:48.288Z,33.50
2022-11-29T05:27:19.021Z,44.33
2022-11-29T05:29:51.749Z,36.03
2022-11-29T05:32:38.604Z,43.13
2022-11-29T05:35:15.842Z,35.35
2022-11-29T05:37:46.286Z,32.15
2022-11-29T05:40:33.336Z,48.22
2022-11-29T05:43:08.611Z,38.38
2022-11-29T05:45:42.756Z,33.03
2022-11-29T05:48:15.676Z,36.50
2022-11-29T05:50:47.634Z,35.80
2022-11-29T05:55:50.572Z,27.30
2022-11-29T05:58:29.932Z,29.35
2022-11-29T06:01:03.534Z,24.15
2022-11-29T06:03:35.483Z,34.40
2022-11-29T06:06:08.118Z,32.50
2022-11-29T06:08:39.263Z,28.80
2022-11-29T06:11:12.981Z,22.80
2022-11-29T06:13:51.026Z,26.80
2022-11-29T06:16:36.833Z,26.42
2022-11-29T06:19:20.851Z,26.52
2022-11-29T06:21:57.907Z,27.30
2022-11-29T06:24:37.249Z,27.38
2022-11-29T06:27:18.138Z,24.42
2022-11-29T06:29:51.745Z,21.33
2022-11-29T06:32:26.056Z,22.70
2022-11-29T06:34:59.223Z,22.02
2022-11-29T06:37:31.786Z,19.05
2022-11-29T06:40:00.975Z,17.08
2022-11-29T06:42:29.920Z,19.52
2022-11-29T06:44:59.282Z,21.80
2022-11-29T06:47:31.153Z,17.75
2022-11-29T06:52:31.575Z,17.90
2022-11-29T06:55:14.238Z,15.20
2022-11-29T06:57:54.188Z,21.85
2022-11-29T07:00:25.690Z,20.95
2022-11-29T07:03:01.927Z,14.85
2022-11-29T07:05:32.394Z,23.15
2022-11-29T07:08:04.029Z,17.35
2022-11-29T07:10:34.266Z,21.75
2022-11-29T07:13:03.652Z,18.30
2022-11-29T07:15:33.121Z,18.48
2022-11-29T07:18:11.067Z,20.95
2022-11-29T07:20:43.889Z,17.63
2022-11-29T07:23:15.340Z,20.75
2022-11-29T07:25:49.329Z,17.70
2022-11-29T07:28:25.072Z,16.60
2022-11-29T07:30:59.064Z,14.85
2022-11-29T07:33:32.964Z,15.18
2022-11-29T07:36:06.978Z,14.15
2022-11-29T07:38:40.243Z,15.00
2022-11-29T07:41:12.136Z,18.70
2022-11-29T07:43:45.723Z,13.68
2022-11-29T07:46:14.737Z,15.52
2022-11-29T07:48:45.270Z,18.02
2022-11-29T07:51:14.607Z,21.38
2022-11-29T07:53:47.320Z,18.77
2022-11-29T07:56:16.660Z,16.55
2022-11-29T07:58:45.756Z,20.15
2022-11-29T08:01:15.265Z,15.73
2022-11-29T08:03:45.751Z,19.58
2022-11-29T08:06:14.685Z,17.15
2022-11-29T08:08:44.459Z,15.25
2022-11-29T08:11:14.114Z,21.58
2022-11-29T08:13:43.349Z,20.88
2022-11-29T08:16:17.493Z,19.08
2022-11-29T08:18:48.411Z,19.67
2022-11-29T08:21:18.236Z,19.35
2022-11-29T08:23:47.393Z,20.27
2022-11-29T08:26:16.854Z,23.10
2022-11-29T08:28:46.060Z,20.40
2022-11-29T08:31:15.302Z,17.45
2022-11-29T08:33:44.834Z,17.10
2022-11-29T08:36:16.241Z,18.13
2022-11-29T08:38:45.501Z,14.93
2022-11-29T08:41:15.497Z,16.52
2022-11-29T08:43:44.767Z,16.50
2022-11-29T08:46:18.232Z,17.63
2022-11-29T08:48:47.832Z,14.90
2022-11-29T08:51:18.278Z,12.38
2022-11-29T08:53:51.612Z,10.45
2022-11-29T08:59:09.952Z,10.55
2022-11-29T09:01:38.995Z,12.27
2022-11-29T09:04:10.508Z,9.85
2022-11-29T09:06:41.664Z,8.43
2022-11-29T09:09:10.690Z,10.10
2022-11-29T09:11:39.820Z,8.48
2022-11-29T09:14:09.572Z,10.90
2022-11-29T09:16:39.463Z,12.18
2022-11-29T09:19:09.104Z,9.73
2022-11-29T09:21:38.081Z,11.23
2022-11-29T09:24:11.946Z,11.95
2022-11-29T09:26:42.185Z,10.48
2022-11-29T09:29:12.235Z,15.20
2022-11-29T09:31:41.180Z,13.23
2022-11-29T09:34:10.136Z,14.60
2022-11-29T09:36:39.160Z,13.90
2022-11-29T09:39:09.913Z,13.50
2022-11-29T09:41:48.849Z,13.25
2022-11-29T09:44:21.619Z,11.90
2022-11-29T09:46:58.604Z,11.77
2022-11-29T09:49:43.075Z,11.13
2022-11-29T09:52:16.911Z,10.55
2022-11-29T09:54:51.552Z,14.95
2022-11-29T09:57:22.059Z,14.13
2022-11-29T09:59:52.617Z,13.05
2022-11-29T10:02:24.760Z,12.93
2022-11-29T10:04:56.620Z,15.75
2022-11-29T10:07:29.762Z,12.95
2022-11-29T10:10:06.226Z,12.80
2022-11-29T10:12:39.330Z,15.27
2022-11-29T10:15:13.831Z,9.65
2022-11-29T10:17:46.647Z,12.27
2022-11-29T10:20:18.917Z,13.88
2022-11-29T10:22:53.602Z,9.32
2022-11-29T10:25:29.146Z,8.35
2022-11-29T10:28:02.001Z,7.50
2022-11-29T10:30:34.029Z,6.35
2022-11-29T10:33:04.182Z,9.27
2022-11-29T10:35:35.588Z,8.45
2022-11-29T10:38:29.605Z,8.88
2022-11-29T10:41:02.241Z,8.55
2022-11-29T10:43:31.413Z,8.45
2022-11-29T10:46:04.875Z,12.55
2022-11-29T10:48:37.720Z,10.63
2022-11-29T10:51:16.770Z,10.32
2022-11-29T10:53:46.649Z,10.32
2022-11-29T10:56:22.351Z,10.27
2022-11-29T10:58:58.699Z,9.65
2022-11-29T11:01:29.076Z,13.90
2022-11-29T11:03:59.591Z,13.65
2022-11-29T11:06:29.469Z,13.80
2022-11-29T11:08:59.685Z,16.10
2022-11-29T11:11:32.403Z,15.43
2022-11-29T11:14:03.775Z,11.45
2022-11-29T11:16:37.007Z,14.88
2022-11-29T11:19:21.931Z,12.63
2022-11-29T11:21:50.881Z,11.00
2022-11-29T11:24:24.899Z,12.75
2022-11-29T11:26:56.509Z,13.93
2022-11-29T11:29:28.524Z,10.93
2022-11-29T11:31:58.504Z,15.35
2022-11-29T11:34:34.209Z,15.80
2022-11-29T11:37:20.516Z,13.30
2022-11-29T11:39:50.838Z,13.07
2022-11-29T11:42:37.942Z,11.77
2022-11-29T11:45:22.461Z,11.98
2022-11-29T11:47:52.630Z,14.50
2022-11-29T11:50:28.735Z,12.10
2022-11-29T11:52:58.830Z,13.60
2022-11-29T11:55:30.905Z,14.65
2022-11-29T11:58:09.398Z,12.30
2022-11-29T12:03:37.887Z,13.23
2022-11-29T12:06:16.696Z,9.38
2022-11-29T12:08:50.058Z,14.97
2022-11-29T12:11:37.536Z,12.15
2022-11-29T12:14:09.203Z,14.80
2022-11-29T12:16:40.371Z,15.45
2022-11-29T12:19:16.806Z,11.95
2022-11-29T12:21:49.434Z,10.23
2022-11-29T12:24:23.218Z,12.30
2022-11-29T12:26:58.380Z,12.35
2022-11-29T12:29:31.748Z,12.73
2022-11-29T12:32:06.330Z,17.17
2022-11-29T12:34:45.796Z,11.38
2022-11-29T12:37:21.026Z,11.88
2022-11-29T12:39:59.494Z,11.75
2022-11-29T12:42:37.927Z,14.10
2022-11-29T12:45:21.373Z,11.50
2022-11-29T12:47:54.578Z,10.10
2022-11-29T12:50:29.391Z,10.38
2022-11-29T12:53:04.187Z,10.30
2022-11-29T12:55:38.617Z,11.00
2022-11-29T12:58:12.608Z,12.57
2022-11-29T13:00:47.836Z,11.55
2022-11-29T13:03:21.123Z,12.02
2022-11-29T13:05:56.186Z,9.57
2022-11-29T13:08:39.420Z,12.98
2022-11-29T13:11:12.027Z,11.35
2022-11-29T13:13:42.812Z,10.88
2022-11-29T13:16:24.008Z,15.13
2022-11-29T13:18:57.017Z,15.23
2022-11-29T13:21:29.909Z,10.10
2022-11-29T13:24:09.639Z,10.60
2022-11-29T13:26:39.643Z,13.40
2022-11-29T13:29:09.277Z,10.35
2022-11-29T13:31:43.286Z,12.20
2022-11-29T13:34:16.131Z,11.63
2022-11-29T13:36:50.752Z,13.30
2022-11-29T13:39:30.273Z,10.93
2022-11-29T13:42:05.883Z,11.23
2022-11-29T13:44:40.212Z,13.20
2022-11-29T13:47:11.975Z,12.35
2022-11-29T13:49:58.131Z,14.40
2022-11-29T13:52:30.078Z,12.68
2022-11-29T13:57:27.889Z,11.73
2022-11-29T13:59:57.181Z,12.90
2022-11-29T14:02:30.640Z,13.32
2022-11-29T14:05:00.341Z,12.90
2022-11-29T14:07:29.575Z,12.95
2022-11-29T14:10:00.375Z,11.10
2022-11-29T14:12:39.264Z,10.95
2022-11-29T14:15:24.446Z,11.55
2022-11-29T14:17:57.115Z,12.80
2022-11-29T14:20:53.546Z,12.70
2022-11-29T14:23:33.641Z,11.27
2022-11-29T14:26:28.111Z,10.63
2022-11-29T14:29:00.909Z,11.18
2022-11-29T14:31:48.797Z,13.50
2022-11-29T14:34:23.176Z,10.23
2022-11-29T14:36:57.030Z,11.20
2022-11-29T14:39:29.832Z,10.20
2022-11-29T14:42:06.360Z,10.98
2022-11-29T14:44:45.769Z,12.55
2022-11-29T14:47:23.978Z,12.02
2022-11-29T14:49:58.337Z,14.15
2022-11-29T14:52:34.329Z,10.38
2022-11-29T14:55:08.635Z,10.75
2022-11-29T14:58:06.052Z,9.15
2022-11-29T15:00:43.083Z,11.75
2022-11-29T15:03:14.284Z,11.70
2022-11-29T15:05:47.580Z,14.00
2022-11-29T15:08:20.866Z,14.32
2022-11-29T15:10:51.806Z,11.60
2022-11-29T15:13:23.897Z,12.07
2022-11-29T15:16:07.394Z,13.95
2022-11-29T15:18:57.994Z,12.35
2022-11-29T15:21:35.380Z,12.75
2022-11-29T15:24:11.722Z,12.15
2022-11-29T15:26:41.077Z,11.95
2022-11-29T15:29:17.796Z,11.57
2022-11-29T15:31:47.877Z,13.77
2022-11-29T15:34:21.143Z,13.40
2022-11-29T15:36:51.686Z,14.32
2022-11-29T15:39:28.328Z,12.70
2022-11-29T15:42:02.157Z,15.70
2022-11-29T15:44:33.010Z,12.82
2022-11-29T15:47:18.396Z,14.90
2022-11-29T15:49:58.955Z,17.55
2022-11-29T15:52:31.802Z,59.33
2022-11-29T15:55:04.390Z,119.50
2022-11-29T15:57:35.296Z,70.90
2022-11-29T16:00:05.903Z,37.65
2022-11-29T16:02:39.471Z,29.13
2022-11-29T16:05:12.985Z,17.88
2022-11-29T16:07:45.275Z,22.63
2022-11-29T16:10:16.373Z,29.75
2022-11-29T16:12:55.520Z,22.60
2022-11-29T16:15:36.617Z,16.75
2022-11-29T16:18:06.659Z,20.02
2022-11-29T16:20:36.224Z,15.95
2022-11-29T16:23:11.966Z,19.88
2022-11-29T16:25:52.809Z,16.95
2022-11-29T16:28:24.182Z,16.63
2022-11-29T16:30:57.894Z,27.90
2022-11-29T16:33:27.181Z,17.38
2022-11-29T16:36:05.697Z,19.08
2022-11-29T16:38:36.857Z,19.55
2022-11-29T16:41:10.439Z,18.40
2022-11-29T16:43:53.725Z,19.98
2022-11-29T16:46:36.545Z,16.40
2022-11-29T16:49:29.439Z,18.73
2022-11-29T16:52:00.813Z,20.17
2022-11-29T16:54:34.007Z,19.38
2022-11-29T16:57:05.535Z,18.08
2022-11-29T16:59:36.472Z,16.55
2022-11-29T17:02:08.121Z,23.02
2022-11-29T17:04:38.192Z,15.73
2022-11-29T17:07:11.656Z,23.05
2022-11-29T17:09:42.729Z,22.67
2022-11-29T17:12:15.502Z,24.00
2022-11-29T17:14:45.445Z,22.17
2022-11-29T17:17:16.122Z,27.90
2022-11-29T17:19:45.298Z,23.77
2022-11-29T17:22:14.605Z,24.15
2022-11-29T17:24:48.233Z,28.75
2022-11-29T17:27:18.133Z,27.80
2022-11-29T17:29:48.540Z,21.63
2022-11-29T17:32:21.988Z,25.45
2022-11-29T17:34:54.489Z,27.40
2022-11-29T17:37:26.249Z,24.40
2022-11-29T17:39:57.000Z,28.30
2022-11-29T17:42:26.233Z,28.27
2022-11-29T17:44:55.588Z,23.73
2022-11-29T17:47:24.740Z,29.92
2022-11-29T17:49:53.937Z,28.50
2022-11-29T17:52:22.873Z,28.38
2022-11-29T17:54:51.943Z,33.08
2022-11-29T17:57:25.278Z,31.90
2022-11-29T17:59:54.449Z,35.35
2022-11-29T18:02:23.928Z,28.55
2022-11-29T18:04:53.211Z,29.95
2022-11-29T18:07:24.900Z,32.65
2022-11-29T18:12:34.428Z,31.85
2022-11-29T18:15:06.525Z,32.10
2022-11-29T18:20:07.780Z,35.45
2022-11-29T18:22:38.310Z,32.72
2022-11-29T18:25:36.957Z,38.80
2022-11-29T18:28:03.065Z,31.42
2022-11-29T18:30:35.670Z,33.63
2022-11-29T18:33:06.628Z,36.20
2022-11-29T18:35:36.083Z,31.77
2022-11-29T18:38:16.285Z,31.83
2022-11-29T18:40:46.526Z,37.00
2022-11-29T18:43:22.735Z,34.13
2022-11-29T18:45:54.514Z,33.42
2022-11-29T18:48:23.825Z,33.67
2022-11-29T18:50:52.778Z,37.95
2022-11-29T18:53:22.126Z,37.90
2022-11-29T18:56:01.068Z,37.33
2022-11-29T18:58:31.640Z,42.17
2022-11-29T19:01:08.106Z,37.67
2022-11-29T19:03:41.105Z,38.60
2022-11-29T19:06:14.192Z,45.15
2022-11-29T19:08:43.989Z,43.10
2022-11-29T19:11:17.682Z,31.50
2022-11-29T19:13:48.968Z,42.75
2022-11-29T19:16:19.374Z,40.75
2022-11-29T19:18:55.400Z,39.50
2022-11-29T19:21:25.915Z,34.97
2022-11-29T19:23:56.355Z,35.25
2022-11-29T19:26:26.641Z,43.70
2022-11-29T19:28:57.832Z,42.30
2022-11-29T19:31:34.971Z,44.25
2022-11-29T19:34:06.411Z,40.17
2022-11-29T19:36:37.444Z,40.10
2022-11-29T19:39:09.357Z,47.53
2022-11-29T19:41:38.791Z,44.08
2022-11-29T19:44:12.378Z,40.22
2022-11-29T19:46:42.474Z,44.60
2022-11-29T19:49:12.095Z,35.80
2022-11-29T19:51:41.102Z,47.15
2022-11-29T19:54:12.055Z,40.88
2022-11-29T19:56:41.652Z,42.73
2022-11-29T19:59:12.060Z,40.90
2022-11-29T20:01:42.918Z,42.17
2022-11-29T20:04:13.879Z,38.80
2022-11-29T20:06:43.076Z,48.05
2022-11-29T20:09:13.450Z,47.38
2022-11-29T20:11:43.909Z,40.55
2022-11-29T20:14:14.674Z,48.58
2022-11-29T20:16:47.038Z,44.85
2022-11-29T20:19:17.995Z,38.92
2022-11-29T20:21:48.808Z,39.85
2022-11-29T20:24:19.404Z,49.60
2022-11-29T20:26:49.834Z,44.08
2022-11-29T20:29:21.808Z,48.28
2022-11-29T20:31:51.564Z,51.42
2022-11-29T20:34:21.440Z,50.20
2022-11-29T20:37:06.777Z,65.07
2022-11-29T20:39:42.235Z,61.10
2022-11-29T20:42:20.868Z,53.33
2022-11-29T20:44:54.251Z,48.72
2022-11-29T20:47:24.552Z,53.13
2022-11-29T20:49:53.671Z,56.47
2022-11-29T20:52:30.402Z,48.55
2022-11-29T20:54:59.377Z,62.13
2022-11-29T20:57:28.765Z,48.33
2022-11-29T20:59:59.501Z,53.10
2022-11-29T21:02:28.531Z,48.35
2022-11-29T21:04:58.701Z,54.20
2022-11-29T21:07:33.545Z,53.63
2022-11-29T21:10:02.734Z,47.75
2022-11-29T21:12:32.193Z,49.17
2022-11-29T21:15:03.177Z,51.22
2022-11-29T21:17:33.857Z,49.50
2022-11-29T21:20:03.645Z,48.45
2022-11-29T21:22:39.063Z,45.45
2022-11-29T21:25:14.600Z,55.58
2022-11-29T21:27:44.328Z,50.85
2022-11-29T21:30:28.555Z,49.92
2022-11-29T21:33:04.677Z,55.75
2022-11-29T21:35:37.698Z,59.30
2022-11-29T21:38:12.481Z,49.10
2022-11-29T21:40:45.699Z,57.80
2022-11-29T21:43:15.024Z,52.08
2022-11-29T21:45:49.001Z,48.17
2022-11-29T21:48:44.029Z,48.85
2022-11-29T21:51:14.068Z,52.90
2022-11-29T21:53:45.552Z,48.80
2022-11-29T21:56:21.813Z,46.83
2022-11-29T21:58:52.742Z,49.17
2022-11-29T22:01:23.468Z,46.90
2022-11-29T22:03:54.186Z,43.85
2022-11-29T22:06:26.198Z,45.05
2022-11-29T22:08:55.642Z,50.33
2022-11-29T22:11:35.442Z,44.28
2022-11-29T22:14:18.499Z,45.60
2022-11-29T22:16:50.578Z,44.60
2022-11-29T22:19:20.371Z,46.78
2022-11-29T22:21:50.768Z,52.95
2022-11-29T22:24:21.120Z,46.70
2022-11-29T22:26:50.655Z,51.03
2022-11-29T22:29:20.678Z,45.25
2022-11-29T22:31:57.255Z,50.25
2022-11-29T22:34:28.354Z,47.13
2022-11-29T22:36:57.993Z,49.03
2022-11-29T22:39:29.183Z,46.38
2022-11-29T22:41:58.860Z,50.38
2022-11-29T22:44:28.137Z,60.03
2022-11-29T22:46:59.043Z,52.08
2022-11-29T22:49:28.397Z,43.35
2022-11-29T22:51:57.612Z,55.70
2022-11-29T22:54:26.840Z,55.40
2022-11-29T22:56:56.588Z,53.45
2022-11-29T22:59:29.195Z,53.72
2022-11-29T23:02:00.398Z,49.55
2022-11-29T23:04:29.714Z,53.50
2022-11-29T23:06:58.955Z,50.30
2022-11-29T23:09:28.222Z,48.28
2022-11-29T23:11:57.592Z,53.15
2022-11-29T23:14:26.639Z,53.63
2022-11-29T23:16:55.886Z,55.13
2022-11-29T23:19:26.303Z,62.17
2022-11-29T23:21:56.470Z,54.13
2022-11-29T23:24:25.383Z,50.28
2022-11-29T23:26:54.410Z,55.20
2022-11-29T23:29:23.348Z,54.58
2022-11-29T23:31:55.736Z,50.15
2022-11-29T23:34:26.584Z,52.25
2022-11-29T23:36:56.031Z,53.17
2022-11-29T23:39:24.965Z,49.92
2022-11-29T23:41:54.017Z,55.97
2022-11-29T23:44:23.060Z,51.67
2022-11-29T23:46:52.085Z,55.42
2022-11-29T23:49:21.130Z,57.17
2022-11-29T23:51:51.708Z,54.83
2022-11-29T23:54:20.730Z,52.63
2022-11-29T23:56:50.045Z,49.30
2022-11-29T23:59:19.364Z,51.40
